createdAt,value
2022-11-09T00:00:56.224Z,82.38
2022-11-09T00:03:23.229Z,83.04
2022-11-09T00:05:58.282Z,84.05
2022-11-09T00:08:26.017Z,83.03
2022-11-09T00:10:52.978Z,82.88
2022-11-09T00:13:20.262Z,82.95
2022-11-09T00:15:47.395Z,82.25
2022-11-09T00:18:14.400Z,81.56
2022-11-09T00:20:47.290Z,82.29
2022-11-09T00:23:16.356Z,80.84
2022-11-09T00:25:43.736Z,80.96
2022-11-09T00:28:10.921Z,80.01
2022-11-09T00:30:37.877Z,80.07
2022-11-09T00:33:05.066Z,81.12
2022-11-09T00:35:32.069Z,80.41
2022-11-09T00:37:59.179Z,80.20
2022-11-09T00:40:26.910Z,80.54
2022-11-09T00:42:54.074Z,81.01
2022-11-09T00:45:21.009Z,80.13
2022-11-09T00:47:47.978Z,80.26
2022-11-09T00:50:14.941Z,81.20
2022-11-09T00:52:41.930Z,80.15
2022-11-09T00:55:09.327Z,81.10
2022-11-09T00:57:36.310Z,81.42
2022-11-09T01:00:04.677Z,82.22
2022-11-09T01:02:31.671Z,82.42
2022-11-09T01:04:59.948Z,81.93
2022-11-09T01:07:26.911Z,82.14
2022-11-09T01:09:53.884Z,81.85
2022-11-09T01:12:24.403Z,82.28
2022-11-09T01:14:51.669Z,82.81
2022-11-09T01:17:18.735Z,82.07
2022-11-09T01:19:47.199Z,82.42
2022-11-09T01:22:15.334Z,82.92
2022-11-09T01:24:42.560Z,83.32
2022-11-09T01:27:09.506Z,82.77
2022-11-09T01:29:36.772Z,83.26
2022-11-09T01:32:04.175Z,83.56
2022-11-09T01:34:32.474Z,84.89
2022-11-09T01:37:02.557Z,83.15
2022-11-09T01:39:30.544Z,83.05
2022-11-09T01:41:57.519Z,83.21
2022-11-09T01:44:27.675Z,85.25
2022-11-09T01:47:06.125Z,85.77
2022-11-09T01:49:54.910Z,85.98
2022-11-09T01:52:45.909Z,86.97
2022-11-09T01:55:18.677Z,87.49
2022-11-09T01:58:02.449Z,86.71
2022-11-09T02:00:30.772Z,87.33
2022-11-09T02:03:22.738Z,87.10
2022-11-09T02:05:50.743Z,87.77
2022-11-09T02:08:20.946Z,88.10
2022-11-09T02:11:11.468Z,88.77
2022-11-09T02:13:43.126Z,88.75
2022-11-09T02:16:13.009Z,87.80
2022-11-09T02:18:54.993Z,87.57
2022-11-09T02:21:28.185Z,88.11
2022-11-09T02:23:55.601Z,86.94
2022-11-09T02:26:39.308Z,87.64
2022-11-09T02:29:09.837Z,88.12
2022-11-09T02:31:43.262Z,87.98
2022-11-09T02:34:19.718Z,87.71
2022-11-09T02:36:47.945Z,87.81
2022-11-09T02:39:25.164Z,88.31
2022-11-09T02:42:03.612Z,87.61
2022-11-09T02:44:40.711Z,87.85
2022-11-09T02:47:08.521Z,88.29
2022-11-09T02:49:35.600Z,88.20
2022-11-09T02:52:02.802Z,87.40
2022-11-09T02:54:30.058Z,87.53
2022-11-09T02:56:57.863Z,88.41
2022-11-09T02:59:26.066Z,88.54
2022-11-09T03:01:53.161Z,87.69
2022-11-09T03:04:20.948Z,88.75
2022-11-09T03:06:48.096Z,88.74
2022-11-09T03:09:18.961Z,89.68
2022-11-09T03:11:46.241Z,88.95
2022-11-09T03:14:15.361Z,89.49
2022-11-09T03:16:50.799Z,89.13
2022-11-09T03:19:18.476Z,89.80
2022-11-09T03:21:47.375Z,90.20
2022-11-09T03:24:14.385Z,90.58
2022-11-09T03:26:42.356Z,90.43
2022-11-09T03:29:09.526Z,90.81
2022-11-09T03:31:36.939Z,91.70
2022-11-09T03:34:06.850Z,91.60
2022-11-09T03:36:35.753Z,91.45
2022-11-09T03:39:03.050Z,89.15
2022-11-09T03:41:30.117Z,89.91
2022-11-09T03:43:57.151Z,89.29
2022-11-09T03:46:24.094Z,90.05
2022-11-09T03:48:51.042Z,88.99
2022-11-09T03:51:18.033Z,89.47
2022-11-09T03:53:45.042Z,89.97
2022-11-09T03:56:11.982Z,88.43
2022-11-09T03:58:38.921Z,90.08
2022-11-09T04:01:05.968Z,89.57
2022-11-09T04:03:32.967Z,89.54
2022-11-09T04:06:00.306Z,90.00
2022-11-09T04:08:27.295Z,90.22
2022-11-09T04:10:54.354Z,91.23
2022-11-09T04:13:21.622Z,91.42
2022-11-09T04:15:48.824Z,91.76
2022-11-09T04:18:17.455Z,91.37
2022-11-09T04:20:44.923Z,91.66
2022-11-09T04:23:13.725Z,90.70
2022-11-09T04:25:42.547Z,90.84
2022-11-09T04:28:18.844Z,91.51
2022-11-09T04:30:45.892Z,91.80
2022-11-09T04:33:12.972Z,92.01
2022-11-09T04:35:40.168Z,92.41
2022-11-09T04:38:11.574Z,92.20
2022-11-09T04:40:39.087Z,92.10
2022-11-09T04:43:10.405Z,91.20
2022-11-09T04:45:37.470Z,91.10
2022-11-09T04:48:07.118Z,91.77
2022-11-09T04:50:34.781Z,91.70
2022-11-09T04:53:10.955Z,92.59
2022-11-09T04:55:39.183Z,92.19
2022-11-09T04:58:07.201Z,92.68
2022-11-09T05:00:34.598Z,92.90
2022-11-09T05:03:06.676Z,92.41
2022-11-09T05:05:36.598Z,92.19
2022-11-09T05:08:05.547Z,91.86
2022-11-09T05:10:33.293Z,91.98
2022-11-09T05:13:10.295Z,92.93
2022-11-09T05:15:37.481Z,92.70
2022-11-09T05:18:05.768Z,92.64
2022-11-09T05:20:33.246Z,93.02
2022-11-09T05:23:19.426Z,92.95
2022-11-09T05:25:47.246Z,92.64
2022-11-09T05:28:14.614Z,91.75
2022-11-09T05:30:42.123Z,93.13
2022-11-09T05:33:09.077Z,93.88
2022-11-09T05:35:36.066Z,92.64
2022-11-09T05:38:03.072Z,92.98
2022-11-09T05:40:30.165Z,92.82
2022-11-09T05:42:57.280Z,92.99
2022-11-09T05:45:41.975Z,92.22
2022-11-09T05:48:12.219Z,92.74
2022-11-09T05:50:39.796Z,92.66
2022-11-09T05:53:14.377Z,92.47
2022-11-09T05:55:41.524Z,93.37
2022-11-09T05:58:08.997Z,93.15
2022-11-09T06:00:36.727Z,93.57
2022-11-09T06:03:06.166Z,93.73
2022-11-09T06:05:34.880Z,94.28
2022-11-09T06:08:14.146Z,93.72
2022-11-09T06:10:42.269Z,93.56
2022-11-09T06:13:10.285Z,92.89
2022-11-09T06:15:37.340Z,93.01
2022-11-09T06:18:04.492Z,93.62
2022-11-09T06:20:33.055Z,94.22
2022-11-09T06:23:03.774Z,94.14
2022-11-09T06:25:32.821Z,93.57
2022-11-09T06:27:59.948Z,94.27
2022-11-09T06:30:26.972Z,94.76
2022-11-09T06:33:03.557Z,94.65
2022-11-09T06:35:30.746Z,94.84
2022-11-09T06:38:01.532Z,94.35
2022-11-09T06:40:29.284Z,93.62
2022-11-09T06:43:00.684Z,94.16
2022-11-09T06:45:29.720Z,94.39
2022-11-09T06:47:58.733Z,94.77
2022-11-09T06:50:28.277Z,94.44
2022-11-09T06:53:01.814Z,94.87
2022-11-09T06:55:30.117Z,95.23
2022-11-09T06:57:58.417Z,95.06
2022-11-09T07:00:27.776Z,95.07
2022-11-09T07:02:54.823Z,94.74
2022-11-09T07:05:21.955Z,94.86
2022-11-09T07:07:49.200Z,94.50
2022-11-09T07:10:16.996Z,95.34
2022-11-09T07:12:44.100Z,95.57
2022-11-09T07:15:12.229Z,95.46
2022-11-09T07:17:40.168Z,96.09
2022-11-09T07:20:11.455Z,96.15
2022-11-09T07:22:39.810Z,95.88
2022-11-09T07:25:08.642Z,96.02
2022-11-09T07:27:36.201Z,96.10
2022-11-09T07:30:04.354Z,95.77
2022-11-09T07:35:23.698Z,96.33
2022-11-09T07:37:50.639Z,95.91
2022-11-09T07:40:17.613Z,96.55
2022-11-09T07:42:44.966Z,96.18
2022-11-09T07:45:12.024Z,95.88
2022-11-09T07:47:38.966Z,96.25
2022-11-09T07:50:06.829Z,96.90
2022-11-09T07:52:33.824Z,96.64
2022-11-09T07:55:00.934Z,96.85
2022-11-09T07:57:27.883Z,96.85
2022-11-09T07:59:54.907Z,96.50
2022-11-09T08:02:21.990Z,96.55
2022-11-09T08:04:48.949Z,96.32
2022-11-09T08:07:15.925Z,96.29
2022-11-09T08:09:42.922Z,96.17
2022-11-09T08:12:09.862Z,96.43
2022-11-09T08:14:36.802Z,96.50
2022-11-09T08:17:03.748Z,95.94
2022-11-09T08:19:30.692Z,95.39
2022-11-09T08:21:57.903Z,95.02
2022-11-09T08:24:25.018Z,95.17
2022-11-09T08:26:51.964Z,94.83
2022-11-09T08:29:18.984Z,94.30
2022-11-09T08:31:46.000Z,94.10
2022-11-09T08:34:14.893Z,94.76
2022-11-09T08:36:42.212Z,94.69
2022-11-09T08:39:10.002Z,95.02
2022-11-09T08:41:37.386Z,94.93
2022-11-09T08:44:04.371Z,94.18
2022-11-09T08:46:31.335Z,94.80
2022-11-09T08:48:58.310Z,94.86
2022-11-09T08:51:25.298Z,94.51
2022-11-09T08:53:52.281Z,94.34
2022-11-09T08:56:19.273Z,94.05
2022-11-09T08:58:46.799Z,94.64
2022-11-09T09:01:17.233Z,94.55
2022-11-09T09:03:45.339Z,94.79
2022-11-09T09:06:13.352Z,95.00
2022-11-09T09:08:40.369Z,94.87
2022-11-09T09:11:07.492Z,95.53
2022-11-09T09:13:37.688Z,94.91
2022-11-09T09:16:15.862Z,95.48
2022-11-09T09:18:43.240Z,96.30
2022-11-09T09:21:11.147Z,96.92
2022-11-09T09:23:38.186Z,96.38
2022-11-09T09:26:05.841Z,96.44
2022-11-09T09:28:33.134Z,96.58
2022-11-09T09:31:01.825Z,96.70
2022-11-09T09:33:29.171Z,96.66
2022-11-09T09:35:58.089Z,96.37
2022-11-09T09:38:26.427Z,96.28
2022-11-09T09:41:05.743Z,96.49
2022-11-09T09:43:44.477Z,96.11
2022-11-09T09:46:23.548Z,95.64
2022-11-09T09:49:05.203Z,95.70
2022-11-09T09:51:52.355Z,95.56
2022-11-09T09:54:34.921Z,95.34
2022-11-09T09:57:02.545Z,95.77
2022-11-09T09:59:53.538Z,95.74
2022-11-09T10:02:26.381Z,95.56
2022-11-09T10:05:00.518Z,95.38
2022-11-09T10:07:56.778Z,95.20
2022-11-09T10:10:44.354Z,95.35
2022-11-09T10:13:23.776Z,95.15
2022-11-09T10:16:03.918Z,94.97
2022-11-09T10:18:48.162Z,95.22
2022-11-09T10:21:58.521Z,94.74
2022-11-09T10:24:48.763Z,94.68
2022-11-09T10:27:48.606Z,94.83
2022-11-09T10:30:19.000Z,94.47
2022-11-09T10:32:51.306Z,94.26
2022-11-09T10:35:56.855Z,94.33
2022-11-09T10:38:33.488Z,94.51
2022-11-09T10:41:40.964Z,94.33
2022-11-09T10:44:26.395Z,94.53
2022-11-09T10:47:18.240Z,94.39
2022-11-09T10:50:25.082Z,94.81
2022-11-09T10:53:32.539Z,95.01
2022-11-09T10:56:21.787Z,95.02
2022-11-09T10:59:48.720Z,94.60
2022-11-09T11:02:44.176Z,94.64
2022-11-09T11:05:31.889Z,94.58
2022-11-09T11:08:33.010Z,94.55
2022-11-09T11:11:35.744Z,94.62
2022-11-09T11:14:41.732Z,94.75
2022-11-09T11:17:36.407Z,94.44
2022-11-09T11:20:37.745Z,94.79
2022-11-09T11:23:26.259Z,94.65
2022-11-09T11:26:50.457Z,94.25
2022-11-09T11:29:46.528Z,94.49
2022-11-09T11:32:32.582Z,94.27
2022-11-09T11:35:36.838Z,94.24
2022-11-09T11:38:51.528Z,94.41
2022-11-09T11:41:45.882Z,93.94
2022-11-09T11:48:47.708Z,93.52
2022-11-09T11:52:14.659Z,94.18
2022-11-09T11:55:39.302Z,93.38
2022-11-09T11:59:01.165Z,93.48
2022-11-09T12:02:22.766Z,93.30
2022-11-09T12:06:01.860Z,93.37
2022-11-09T12:09:18.159Z,92.90
2022-11-09T12:12:13.208Z,92.92
2022-11-09T12:15:53.603Z,92.85
2022-11-09T12:19:26.566Z,92.22
2022-11-09T12:22:46.290Z,92.84
2022-11-09T12:26:10.647Z,92.80
2022-11-09T12:29:21.940Z,92.49
2022-11-09T12:32:18.365Z,92.59
2022-11-09T12:35:33.876Z,92.80
2022-11-09T12:38:31.040Z,92.60
2022-11-09T12:41:24.337Z,92.69
2022-11-09T12:44:25.925Z,92.60
2022-11-09T12:47:17.015Z,92.36
2022-11-09T12:50:03.217Z,92.33
2022-11-09T12:52:52.180Z,92.29
2022-11-09T12:55:53.490Z,92.17
2022-11-09T12:58:39.847Z,92.10
2022-11-09T13:01:34.402Z,91.85
2022-11-09T13:04:22.362Z,91.86
2022-11-09T13:07:13.843Z,91.92
2022-11-09T13:10:02.629Z,91.66
2022-11-09T13:12:48.151Z,91.97
2022-11-09T13:15:35.547Z,92.06
2022-11-09T13:18:35.295Z,91.94
2022-11-09T13:21:21.530Z,92.14
2022-11-09T13:24:31.741Z,91.91
2022-11-09T13:27:48.352Z,91.75
2022-11-09T13:30:44.071Z,91.85
2022-11-09T13:33:33.618Z,91.82
2022-11-09T13:36:23.170Z,91.51
2022-11-09T13:39:29.458Z,91.77
2022-11-09T13:42:35.977Z,91.63
2022-11-09T13:45:52.693Z,91.53
2022-11-09T13:48:51.411Z,91.40
2022-11-09T13:51:36.849Z,91.63
2022-11-09T13:54:37.439Z,91.44
2022-11-09T13:57:24.849Z,91.73
2022-11-09T14:00:23.427Z,91.88
2022-11-09T14:03:29.276Z,91.77
2022-11-09T14:06:14.932Z,91.18
2022-11-09T14:09:02.614Z,91.37
2022-11-09T14:12:24.675Z,91.23
2022-11-09T14:16:14.872Z,91.13
2022-11-09T14:19:32.103Z,90.98
2022-11-09T14:22:20.122Z,91.36
2022-11-09T14:25:19.277Z,91.24
2022-11-09T14:28:28.180Z,91.29
2022-11-09T14:31:29.426Z,91.06
2022-11-09T14:34:16.753Z,91.21
2022-11-09T14:37:05.732Z,90.82
2022-11-09T14:39:53.941Z,91.44
2022-11-09T14:42:44.907Z,91.16
2022-11-09T14:45:31.882Z,91.63
2022-11-09T14:48:20.261Z,91.17
2022-11-09T14:51:11.950Z,90.86
2022-11-09T14:53:58.521Z,91.30
2022-11-09T14:56:45.255Z,91.01
2022-11-09T14:59:36.308Z,90.83
2022-11-09T15:02:23.414Z,91.23
2022-11-09T15:05:29.822Z,91.28
2022-11-09T15:08:22.384Z,91.36
2022-11-09T15:11:08.786Z,91.17
2022-11-09T15:13:54.356Z,91.32
2022-11-09T15:16:40.345Z,91.51
2022-11-09T15:19:47.552Z,91.19
2022-11-09T15:22:47.261Z,91.43
2022-11-09T15:25:55.816Z,91.63
2022-11-09T15:28:47.358Z,91.48
2022-11-09T15:31:33.500Z,91.49
2022-11-09T15:34:26.923Z,90.80
2022-11-09T15:37:47.008Z,91.57
2022-11-09T15:40:32.539Z,90.90
2022-11-09T15:43:18.053Z,91.51
2022-11-09T15:46:05.027Z,91.04
2022-11-09T15:48:50.660Z,91.13
2022-11-09T15:51:36.009Z,90.96
2022-11-09T15:54:23.961Z,91.67
2022-11-09T15:57:18.782Z,91.15
2022-11-09T16:00:09.184Z,90.67
2022-11-09T16:02:58.191Z,90.83
2022-11-09T16:05:45.358Z,90.83
2022-11-09T16:08:30.785Z,91.08
2022-11-09T16:11:16.466Z,90.62
2022-11-09T16:14:03.704Z,90.22
2022-11-09T16:16:49.724Z,90.62
2022-11-09T16:19:35.501Z,89.78
2022-11-09T16:22:21.191Z,89.70
2022-11-09T16:25:07.372Z,90.11
2022-11-09T16:27:54.031Z,89.99
2022-11-09T16:30:45.519Z,89.29
2022-11-09T16:33:33.188Z,89.76
2022-11-09T16:36:24.094Z,89.45
2022-11-09T16:39:12.804Z,90.45
2022-11-09T16:42:01.912Z,89.29
2022-11-09T16:44:49.425Z,89.47
2022-11-09T16:47:45.429Z,89.86
2022-11-09T16:50:31.132Z,89.62
2022-11-09T16:53:16.582Z,89.58
2022-11-09T16:56:02.376Z,89.08
2022-11-09T16:58:48.408Z,89.57
2022-11-09T17:01:34.135Z,89.16
2022-11-09T17:04:21.611Z,90.29
2022-11-09T17:07:10.324Z,89.75
2022-11-09T17:09:56.201Z,89.46
2022-11-09T17:12:41.689Z,89.25
2022-11-09T17:15:27.351Z,89.42
2022-11-09T17:18:13.372Z,89.16
2022-11-09T17:20:59.366Z,89.74
2022-11-09T17:23:44.986Z,90.00
2022-11-09T17:26:32.737Z,89.54
2022-11-09T17:29:18.382Z,89.99
2022-11-09T17:32:06.719Z,90.35
2022-11-09T17:34:52.710Z,90.79
2022-11-09T17:37:38.277Z,90.73
2022-11-09T17:40:23.912Z,92.29
2022-11-09T17:43:09.286Z,92.58
2022-11-09T17:45:54.747Z,92.90
2022-11-09T17:48:43.253Z,92.94
2022-11-09T17:51:28.749Z,92.94
2022-11-09T17:54:14.932Z,92.78
2022-11-09T17:57:01.044Z,92.02
2022-11-09T17:59:46.718Z,91.96
2022-11-09T18:02:35.235Z,91.11
2022-11-09T18:05:20.575Z,91.34
2022-11-09T18:08:11.045Z,91.91
2022-11-09T18:11:01.239Z,91.60
2022-11-09T18:13:46.840Z,91.90
2022-11-09T18:16:32.283Z,92.93
2022-11-09T18:19:18.011Z,93.21
2022-11-09T18:22:06.569Z,92.80
2022-11-09T18:24:55.242Z,92.76
2022-11-09T18:27:40.796Z,91.26
2022-11-09T18:30:26.772Z,91.44
2022-11-09T18:33:12.453Z,91.85
2022-11-09T18:36:15.374Z,92.55
2022-11-09T18:39:03.050Z,93.18
2022-11-09T18:41:48.605Z,91.51
2022-11-09T18:44:34.089Z,91.76
2022-11-09T18:47:20.417Z,92.48
2022-11-09T18:50:06.929Z,92.40
2022-11-09T18:52:52.495Z,92.38
2022-11-09T18:55:37.941Z,91.91
2022-11-09T18:58:23.802Z,92.02
2022-11-09T19:01:09.740Z,91.04
2022-11-09T19:03:59.548Z,91.39
2022-11-09T19:06:45.923Z,91.63
2022-11-09T19:09:35.487Z,90.96
2022-11-09T19:12:21.187Z,91.44
2022-11-09T19:15:07.467Z,90.56
2022-11-09T19:17:54.026Z,90.45
2022-11-09T19:20:39.677Z,90.63
2022-11-09T19:23:32.843Z,90.13
2022-11-09T19:26:23.435Z,90.33
2022-11-09T19:29:14.341Z,90.78
2022-11-09T19:32:00.107Z,91.01
2022-11-09T19:34:46.729Z,90.51
2022-11-09T19:37:32.639Z,91.03
2022-11-09T19:40:18.658Z,91.50
2022-11-09T19:43:04.526Z,91.08
2022-11-09T19:45:50.217Z,91.04
2022-11-09T19:48:35.964Z,91.54
2022-11-09T19:51:22.563Z,90.73
2022-11-09T19:54:10.891Z,90.87
2022-11-09T19:56:56.883Z,92.91
2022-11-09T19:59:42.530Z,93.15
2022-11-09T20:02:28.141Z,91.93
2022-11-09T20:05:13.981Z,91.87
2022-11-09T20:08:01.946Z,91.99
2022-11-09T20:10:47.746Z,91.36
2022-11-09T20:13:34.101Z,92.47
2022-11-09T20:16:19.764Z,91.18
2022-11-09T20:19:09.297Z,91.49
2022-11-09T20:21:55.028Z,91.27
2022-11-09T20:24:40.496Z,91.28
2022-11-09T20:27:29.441Z,90.96
2022-11-09T20:30:17.605Z,91.34
2022-11-09T20:33:03.462Z,91.71
2022-11-09T20:35:56.393Z,90.98
2022-11-09T20:38:42.723Z,90.94
2022-11-09T20:41:28.787Z,91.56
2022-11-09T20:44:15.735Z,91.12
2022-11-09T20:47:01.583Z,90.97
2022-11-09T20:49:48.367Z,91.04
2022-11-09T20:52:34.463Z,91.18
2022-11-09T20:55:19.997Z,91.02
2022-11-09T20:58:06.419Z,90.30
2022-11-09T21:01:12.082Z,90.57
2022-11-09T21:03:57.666Z,90.77
2022-11-09T21:06:43.340Z,90.55
2022-11-09T21:09:29.072Z,90.62
2022-11-09T21:12:24.904Z,90.57
2022-11-09T21:15:11.161Z,90.06
2022-11-09T21:17:56.825Z,90.60
2022-11-09T21:20:43.458Z,90.31
2022-11-09T21:23:28.892Z,90.34
2022-11-09T21:26:33.289Z,90.27
2022-11-09T21:29:42.531Z,90.21
2022-11-09T21:32:30.559Z,89.73
2022-11-09T21:35:16.109Z,89.88
2022-11-09T21:38:01.542Z,89.88
2022-11-09T21:40:47.378Z,90.04
2022-11-09T21:43:33.217Z,89.70
2022-11-09T21:46:18.984Z,89.96
2022-11-09T21:49:06.419Z,89.85
2022-11-09T21:51:52.390Z,89.89
2022-11-09T21:54:38.137Z,90.16
2022-11-09T21:57:23.797Z,90.74
2022-11-09T22:00:10.482Z,90.99
2022-11-09T22:02:55.920Z,90.16
2022-11-09T22:05:41.330Z,90.88
2022-11-09T22:08:27.390Z,90.37
2022-11-09T22:11:41.285Z,90.25
2022-11-09T22:15:05.612Z,90.19
2022-11-09T22:17:54.218Z,90.48
2022-11-09T22:20:54.742Z,90.37
2022-11-09T22:23:40.090Z,89.79
2022-11-09T22:26:26.351Z,89.83
2022-11-09T22:29:11.962Z,90.04
2022-11-09T22:31:57.404Z,89.97
2022-11-09T22:34:43.602Z,89.88
2022-11-09T22:37:29.206Z,89.83
2022-11-09T22:40:14.909Z,89.63
2022-11-09T22:43:00.693Z,90.22
2022-11-09T22:45:46.335Z,89.79
2022-11-09T22:48:33.557Z,89.71
2022-11-09T22:51:19.511Z,90.14
2022-11-09T22:54:05.170Z,89.91
2022-11-09T22:56:50.802Z,89.88
2022-11-09T22:59:36.200Z,90.14
2022-11-09T23:02:21.774Z,90.00
2022-11-09T23:05:08.756Z,90.10
2022-11-09T23:07:55.697Z,89.76
2022-11-09T23:10:41.283Z,89.53
2022-11-09T23:13:26.874Z,89.50
2022-11-09T23:16:12.353Z,89.65
2022-11-09T23:18:58.112Z,89.87
2022-11-09T23:21:43.592Z,89.63
2022-11-09T23:24:47.711Z,89.40
2022-11-09T23:27:33.346Z,89.85
2022-11-09T23:30:19.636Z,89.66
2022-11-09T23:33:05.215Z,89.87
2022-11-09T23:35:51.057Z,90.60
2022-11-09T23:38:38.758Z,89.89
2022-11-09T23:41:24.375Z,89.73
2022-11-09T23:44:10.167Z,89.46
2022-11-09T23:46:55.542Z,89.50
2022-11-09T23:49:40.977Z,89.67
2022-11-09T23:52:26.438Z,89.36
2022-11-09T23:55:12.145Z,89.77
2022-11-09T23:58:01.368Z,89.48
